createdAt,value
2023-03-05T00:01:54.974Z,0.40
2023-03-05T00:04:21.585Z,0.36
2023-03-05T00:06:48.141Z,0.23
2023-03-05T00:09:14.756Z,0.35
2023-03-05T00:11:41.385Z,0.33
2023-03-05T00:14:08.017Z,0.24
2023-03-05T00:16:34.684Z,0.42
2023-03-05T00:19:01.640Z,0.23
2023-03-05T00:21:32.490Z,0.41
2023-03-05T00:24:03.586Z,0.35
2023-03-05T00:26:31.236Z,0.28
2023-03-05T00:28:58.629Z,0.15
2023-03-05T00:31:31.289Z,0.41
2023-03-05T00:34:01.352Z,0.34
2023-03-05T00:36:28.869Z,0.38
2023-03-05T00:38:55.621Z,0.42
2023-03-05T00:41:22.417Z,0.35
2023-03-05T00:43:49.205Z,0.67
2023-03-05T00:46:16.690Z,0.34
2023-03-05T00:48:43.379Z,0.17
2023-03-05T00:51:10.192Z,0.15
2023-03-05T00:53:36.779Z,0.37
2023-03-05T00:56:05.024Z,0.41
2023-03-05T00:58:31.613Z,0.44
2023-03-05T01:01:00.113Z,0.42
2023-03-05T01:03:27.528Z,0.45
2023-03-05T01:05:55.713Z,0.47
2023-03-05T01:08:22.277Z,0.27
2023-03-05T01:10:49.031Z,0.52
2023-03-05T01:13:15.652Z,0.43
2023-03-05T01:15:42.556Z,0.33
2023-03-05T01:18:09.134Z,0.33
2023-03-05T01:20:36.055Z,0.30
2023-03-05T01:23:02.730Z,0.29
2023-03-05T01:25:29.320Z,0.37
2023-03-05T01:27:56.669Z,0.30
2023-03-05T01:30:23.399Z,0.41
2023-03-05T01:32:50.073Z,0.34
2023-03-05T01:35:20.697Z,0.43
2023-03-05T01:37:47.569Z,0.42
2023-03-05T01:40:17.383Z,0.35
2023-03-05T01:42:48.704Z,0.35
2023-03-05T01:45:17.963Z,0.45
2023-03-05T01:47:45.304Z,0.61
2023-03-05T01:50:17.285Z,0.50
2023-03-05T01:52:49.621Z,0.49
2023-03-05T01:55:37.214Z,0.58
2023-03-05T01:58:08.095Z,0.53
2023-03-05T02:00:40.370Z,0.46
2023-03-05T02:03:10.649Z,0.65
2023-03-05T02:05:39.384Z,0.49
2023-03-05T02:08:09.208Z,0.23
2023-03-05T02:10:50.831Z,0.51
2023-03-05T02:13:22.594Z,0.44
2023-03-05T02:15:49.956Z,0.51
2023-03-05T02:18:18.316Z,0.56
2023-03-05T02:20:57.281Z,0.54
2023-03-05T02:23:30.204Z,0.40
2023-03-05T02:25:56.782Z,0.35
2023-03-05T02:28:29.543Z,0.47
2023-03-05T02:30:56.259Z,0.28
2023-03-05T02:33:23.332Z,0.49
2023-03-05T02:35:50.217Z,0.36
2023-03-05T02:38:18.883Z,0.40
2023-03-05T02:40:45.622Z,0.29
2023-03-05T02:43:13.620Z,0.44
2023-03-05T02:45:40.449Z,0.41
2023-03-05T02:48:07.054Z,0.40
2023-03-05T02:50:34.340Z,0.50
2023-03-05T02:53:00.909Z,0.49
2023-03-05T02:55:28.205Z,0.31
2023-03-05T02:57:54.771Z,0.37
2023-03-05T03:00:22.545Z,0.41
2023-03-05T03:02:49.722Z,0.36
2023-03-05T03:05:16.338Z,0.34
2023-03-05T03:07:42.877Z,0.44
2023-03-05T03:10:10.435Z,0.54
2023-03-05T03:12:41.663Z,0.50
2023-03-05T03:15:09.933Z,0.54
2023-03-05T03:17:37.626Z,0.53
2023-03-05T03:20:07.662Z,0.45
2023-03-05T03:22:34.335Z,0.40
2023-03-05T03:25:01.437Z,0.37
2023-03-05T03:27:28.159Z,0.33
2023-03-05T03:29:54.744Z,0.33
2023-03-05T03:32:21.398Z,0.50
2023-03-05T03:34:48.331Z,0.50
2023-03-05T03:37:15.162Z,0.40
2023-03-05T03:39:41.713Z,0.53
2023-03-05T03:42:08.304Z,0.51
2023-03-05T03:44:34.899Z,0.44
2023-03-05T03:47:02.427Z,0.52
2023-03-05T03:49:28.996Z,0.53
2023-03-05T03:51:55.917Z,0.56
2023-03-05T03:54:22.877Z,0.52
2023-03-05T03:56:49.446Z,0.55
2023-03-05T03:59:16.206Z,0.52
2023-03-05T04:01:43.225Z,0.40
2023-03-05T04:04:11.683Z,0.38
2023-03-05T04:06:38.751Z,0.53
2023-03-05T04:09:06.099Z,0.49
2023-03-05T04:11:32.643Z,0.44
2023-03-05T04:13:59.242Z,0.48
2023-03-05T04:16:26.162Z,0.49
2023-03-05T04:18:53.103Z,0.50
2023-03-05T04:21:19.706Z,0.44
2023-03-05T04:23:46.309Z,0.43
2023-03-05T04:26:12.926Z,0.44
2023-03-05T04:28:39.621Z,0.21
2023-03-05T04:31:06.256Z,0.38
2023-03-05T04:33:33.812Z,0.34
2023-03-05T04:36:00.470Z,0.34
2023-03-05T04:38:27.100Z,0.42
2023-03-05T04:40:53.788Z,0.35
2023-03-05T04:43:20.420Z,0.25
2023-03-05T04:45:46.948Z,0.27
2023-03-05T04:48:13.704Z,0.40
2023-03-05T04:50:40.244Z,0.37
2023-03-05T04:53:06.911Z,0.43
2023-03-05T04:55:33.497Z,0.34
2023-03-05T04:58:00.010Z,0.30
2023-03-05T05:00:26.537Z,0.38
2023-03-05T05:02:53.548Z,0.40
2023-03-05T05:05:23.159Z,0.43
2023-03-05T05:07:50.159Z,0.37
2023-03-05T05:10:17.354Z,0.44
2023-03-05T05:12:43.840Z,0.33
2023-03-05T05:15:12.132Z,0.39
2023-03-05T05:17:38.854Z,0.38
2023-03-05T05:20:08.828Z,0.23
2023-03-05T05:22:35.697Z,0.14
2023-03-05T05:25:03.041Z,0.34
2023-03-05T05:27:29.660Z,0.10
2023-03-05T05:29:56.476Z,0.36
2023-03-05T05:32:24.161Z,0.40
2023-03-05T05:34:58.552Z,0.34
2023-03-05T05:37:26.638Z,0.38
2023-03-05T05:39:53.821Z,0.36
2023-03-05T05:42:22.828Z,0.34
2023-03-05T05:44:50.060Z,0.42
2023-03-05T05:47:18.232Z,0.28
2023-03-05T05:49:44.881Z,0.29
2023-03-05T05:52:11.498Z,0.27
2023-03-05T05:54:38.784Z,0.38
2023-03-05T05:57:05.982Z,0.41
2023-03-05T05:59:32.661Z,0.41
2023-03-05T06:01:59.578Z,0.43
2023-03-05T06:04:26.244Z,0.42
2023-03-05T06:06:52.774Z,0.44
2023-03-05T06:09:19.451Z,0.54
2023-03-05T06:11:46.033Z,0.56
2023-03-05T06:14:13.247Z,0.54
2023-03-05T06:16:40.393Z,0.56
2023-03-05T06:19:08.792Z,0.61
2023-03-05T06:21:35.257Z,0.51
2023-03-05T06:24:01.823Z,0.38
2023-03-05T06:26:28.271Z,0.34
2023-03-05T06:28:54.906Z,0.45
2023-03-05T06:31:25.623Z,0.54
2023-03-05T06:33:55.268Z,0.43
2023-03-05T06:36:23.307Z,0.29
2023-03-05T06:38:53.040Z,0.41
2023-03-05T06:41:23.282Z,0.57
2023-03-05T06:43:50.288Z,0.29
2023-03-05T06:46:19.705Z,0.77
2023-03-05T06:48:46.536Z,0.46
2023-03-05T06:51:18.567Z,0.56
2023-03-05T06:53:48.981Z,0.72
2023-03-05T06:56:16.723Z,0.66
2023-03-05T06:58:45.784Z,0.63
2023-03-05T07:01:13.116Z,0.80
2023-03-05T07:03:40.333Z,0.74
2023-03-05T07:06:08.968Z,0.67
2023-03-05T07:08:36.476Z,0.81
2023-03-05T07:11:03.991Z,0.77
2023-03-05T07:13:30.521Z,0.72
2023-03-05T07:15:57.153Z,0.68
2023-03-05T07:18:23.629Z,0.84
2023-03-05T07:20:50.120Z,0.80
2023-03-05T07:23:16.625Z,1.03
2023-03-05T07:25:43.159Z,0.90
2023-03-05T07:28:10.657Z,0.79
2023-03-05T07:30:37.254Z,0.95
2023-03-05T07:33:03.851Z,1.09
2023-03-05T07:35:30.348Z,1.11
2023-03-05T07:37:56.980Z,1.31
2023-03-05T07:40:23.559Z,1.23
2023-03-05T07:42:50.114Z,1.27
2023-03-05T07:45:24.375Z,1.42
2023-03-05T07:47:52.551Z,1.35
2023-03-05T07:50:19.176Z,1.29
2023-03-05T07:52:45.689Z,1.48
2023-03-05T07:55:12.115Z,1.52
2023-03-05T07:57:39.001Z,1.41
2023-03-05T08:00:07.001Z,1.56
2023-03-05T08:02:38.196Z,1.47
2023-03-05T08:05:05.039Z,1.44
2023-03-05T08:07:31.541Z,1.61
2023-03-05T08:09:58.055Z,1.35
2023-03-05T08:12:24.595Z,1.57
2023-03-05T08:14:51.556Z,1.64
2023-03-05T08:17:18.269Z,1.73
2023-03-05T08:19:44.752Z,1.94
2023-03-05T08:22:11.479Z,1.84
2023-03-05T08:24:38.009Z,1.83
2023-03-05T08:27:04.363Z,2.31
2023-03-05T08:29:30.852Z,1.98
2023-03-05T08:31:57.306Z,2.08
2023-03-05T08:34:23.762Z,2.32
2023-03-05T08:36:50.251Z,2.23
2023-03-05T08:39:17.168Z,2.48
2023-03-05T08:41:43.670Z,2.38
2023-03-05T08:44:10.313Z,2.33
2023-03-05T08:46:39.603Z,2.30
2023-03-05T08:49:07.394Z,2.67
2023-03-05T08:51:34.760Z,2.53
2023-03-05T08:54:02.493Z,2.59
2023-03-05T08:56:31.213Z,2.77
2023-03-05T08:58:57.693Z,2.28
2023-03-05T09:01:24.234Z,2.42
2023-03-05T09:03:51.027Z,2.30
2023-03-05T09:06:17.617Z,2.59
2023-03-05T09:08:44.067Z,2.67
2023-03-05T09:11:12.474Z,2.80
2023-03-05T09:13:39.369Z,2.82
2023-03-05T09:16:09.057Z,2.93
2023-03-05T09:18:36.675Z,2.68
2023-03-05T09:21:14.878Z,2.71
2023-03-05T09:23:42.203Z,2.83
2023-03-05T09:26:12.020Z,2.61
2023-03-05T09:28:39.759Z,2.61
2023-03-05T09:31:08.017Z,2.59
2023-03-05T09:33:36.031Z,3.02
2023-03-05T09:36:04.502Z,2.73
2023-03-05T09:38:31.370Z,2.77
2023-03-05T09:41:16.942Z,2.61
2023-03-05T09:43:55.325Z,2.88
2023-03-05T09:46:36.424Z,2.82
2023-03-05T09:49:11.500Z,2.83
2023-03-05T09:51:41.378Z,2.85
2023-03-05T09:54:30.306Z,2.92
2023-03-05T09:57:02.646Z,3.08
2023-03-05T09:59:35.948Z,3.49
2023-03-05T10:02:17.045Z,3.64
2023-03-05T10:04:58.303Z,3.32
2023-03-05T10:07:30.727Z,3.36
2023-03-05T10:10:05.134Z,2.86
2023-03-05T10:12:48.432Z,2.75
2023-03-05T10:15:16.980Z,2.92
2023-03-05T10:17:58.699Z,3.34
2023-03-05T10:20:39.129Z,3.24
2023-03-05T10:23:08.732Z,3.35
2023-03-05T10:25:53.353Z,3.40
2023-03-05T10:28:43.873Z,3.62
2023-03-05T10:31:25.940Z,3.60
2023-03-05T10:34:32.547Z,4.15
2023-03-05T10:37:09.703Z,3.53
2023-03-05T10:40:05.954Z,3.65
2023-03-05T10:42:41.591Z,3.78
2023-03-05T10:45:15.469Z,3.63
2023-03-05T10:47:55.495Z,3.53
2023-03-05T10:50:27.828Z,3.45
2023-03-05T10:53:15.229Z,3.55
2023-03-05T10:55:42.109Z,3.66
2023-03-05T10:58:14.996Z,3.18
2023-03-05T11:01:18.847Z,2.97
2023-03-05T11:03:51.175Z,2.94
2023-03-05T11:06:27.127Z,2.84
2023-03-05T11:08:53.777Z,2.72
2023-03-05T11:11:21.134Z,2.68
2023-03-05T11:14:01.011Z,2.71
2023-03-05T11:16:31.540Z,2.90
2023-03-05T11:19:17.616Z,2.74
2023-03-05T11:21:45.627Z,3.23
2023-03-05T11:24:16.227Z,2.73
2023-03-05T11:26:49.921Z,2.46
2023-03-05T11:29:31.030Z,2.75
2023-03-05T11:32:35.468Z,2.96
2023-03-05T11:35:02.017Z,3.27
2023-03-05T11:37:29.884Z,3.05
2023-03-05T11:40:18.105Z,3.28
2023-03-05T11:42:45.190Z,2.82
2023-03-05T11:45:16.972Z,3.06
2023-03-05T11:47:52.101Z,3.22
2023-03-05T11:50:35.825Z,3.06
2023-03-05T11:53:07.517Z,3.24
2023-03-05T11:55:37.073Z,3.14
2023-03-05T11:58:27.152Z,2.86
2023-03-05T12:00:53.623Z,2.69
2023-03-05T12:03:25.490Z,2.88
2023-03-05T12:06:27.445Z,2.77
2023-03-05T12:08:57.635Z,2.58
2023-03-05T12:11:28.999Z,2.43
2023-03-05T12:14:19.342Z,2.29
2023-03-05T12:16:50.791Z,2.42
2023-03-05T12:19:31.904Z,2.25
2023-03-05T12:21:59.307Z,2.20
2023-03-05T12:24:28.113Z,2.09
2023-03-05T12:27:06.413Z,2.41
2023-03-05T12:29:32.843Z,2.16
2023-03-05T12:32:02.479Z,2.18
2023-03-05T12:34:40.900Z,2.11
2023-03-05T12:37:20.601Z,2.36
2023-03-05T12:39:52.589Z,2.29
2023-03-05T12:42:45.161Z,2.71
2023-03-05T12:45:11.789Z,2.43
2023-03-05T12:48:13.492Z,2.03
2023-03-05T12:50:40.026Z,2.48
2023-03-05T12:53:06.902Z,2.51
2023-03-05T12:55:48.542Z,2.62
2023-03-05T12:58:21.202Z,2.31
2023-03-05T13:01:02.497Z,2.19
2023-03-05T13:03:33.556Z,2.37
2023-03-05T13:06:00.877Z,2.06
2023-03-05T13:08:31.619Z,2.23
2023-03-05T13:11:06.192Z,2.62
2023-03-05T13:13:38.722Z,2.07
2023-03-05T13:16:05.713Z,2.15
2023-03-05T13:18:33.077Z,2.09
2023-03-05T13:21:12.215Z,2.32
2023-03-05T13:23:57.605Z,1.99
2023-03-05T13:26:28.657Z,2.19
2023-03-05T13:29:18.828Z,2.03
2023-03-05T13:32:01.728Z,2.05
2023-03-05T13:34:44.604Z,2.22
2023-03-05T13:37:20.974Z,2.31
2023-03-05T13:40:00.440Z,2.15
2023-03-05T13:42:34.473Z,2.22
2023-03-05T13:45:04.707Z,2.35
2023-03-05T13:47:34.005Z,2.46
2023-03-05T13:50:06.519Z,2.17
2023-03-05T13:52:36.049Z,2.58
2023-03-05T13:55:11.844Z,2.60
2023-03-05T13:57:44.556Z,2.51
2023-03-05T14:00:31.111Z,2.58
2023-03-05T14:03:01.042Z,2.46
2023-03-05T14:05:30.886Z,2.52
2023-03-05T14:07:57.650Z,2.50
2023-03-05T14:10:29.313Z,2.54
2023-03-05T14:12:56.760Z,2.50
2023-03-05T14:15:28.927Z,2.80
2023-03-05T14:18:12.170Z,2.43
2023-03-05T14:20:40.450Z,2.60
2023-03-05T14:23:32.887Z,2.85
2023-03-05T14:26:20.808Z,2.69
2023-03-05T14:28:52.941Z,2.54
2023-03-05T14:31:21.095Z,2.40
2023-03-05T14:33:49.494Z,2.70
2023-03-05T14:36:23.455Z,2.60
2023-03-05T14:38:51.805Z,2.85
2023-03-05T14:41:22.588Z,2.83
2023-03-05T14:43:49.067Z,2.88
2023-03-05T14:46:15.554Z,2.85
2023-03-05T14:48:42.176Z,2.69
2023-03-05T14:51:10.771Z,2.58
2023-03-05T14:53:46.343Z,2.60
2023-03-05T14:56:22.362Z,2.58
2023-03-05T14:58:48.951Z,2.69
2023-03-05T15:01:15.540Z,2.69
2023-03-05T15:03:42.396Z,2.52
2023-03-05T15:06:18.653Z,2.86
2023-03-05T15:08:45.486Z,2.72
2023-03-05T15:11:12.020Z,2.79
2023-03-05T15:13:38.594Z,2.72
2023-03-05T15:16:06.813Z,2.70
2023-03-05T15:18:33.413Z,2.66
2023-03-05T15:21:00.220Z,2.77
2023-03-05T15:23:29.705Z,2.60
2023-03-05T15:25:56.205Z,2.50
2023-03-05T15:28:22.616Z,2.75
2023-03-05T15:30:49.157Z,2.71
2023-03-05T15:33:17.016Z,2.45
2023-03-05T15:35:44.304Z,2.50
2023-03-05T15:38:10.975Z,2.47
2023-03-05T15:40:37.459Z,2.39
2023-03-05T15:43:04.045Z,2.57
2023-03-05T15:45:33.754Z,2.58
2023-03-05T15:48:00.298Z,2.57
2023-03-05T15:50:28.219Z,2.41
2023-03-05T15:52:54.629Z,2.60
2023-03-05T15:55:21.374Z,2.45
2023-03-05T15:57:50.257Z,2.38
2023-03-05T16:00:23.785Z,2.16
2023-03-05T16:02:52.326Z,2.12
2023-03-05T16:05:18.758Z,2.04
2023-03-05T16:07:45.958Z,2.26
2023-03-05T16:10:17.443Z,2.23
2023-03-05T16:12:47.255Z,2.16
2023-03-05T16:15:16.027Z,1.96
2023-03-05T16:17:45.296Z,1.92
2023-03-05T16:20:12.672Z,1.88
2023-03-05T16:22:39.170Z,1.60
2023-03-05T16:25:06.150Z,1.90
2023-03-05T16:27:32.809Z,1.70
2023-03-05T16:29:59.275Z,2.04
2023-03-05T16:32:25.920Z,2.03
2023-03-05T16:34:52.454Z,1.85
2023-03-05T16:37:20.146Z,2.06
2023-03-05T16:39:46.964Z,1.89
2023-03-05T16:42:13.859Z,1.72
2023-03-05T16:44:41.598Z,1.75
2023-03-05T16:47:09.277Z,1.64
2023-03-05T16:49:36.631Z,1.76
2023-03-05T16:52:16.445Z,1.97
2023-03-05T16:54:45.256Z,1.73
2023-03-05T16:57:12.153Z,1.74
2023-03-05T16:59:38.764Z,1.74
2023-03-05T17:02:06.172Z,1.67
2023-03-05T17:04:32.876Z,1.82
2023-03-05T17:06:59.504Z,1.67
2023-03-05T17:09:26.052Z,1.59
2023-03-05T17:11:54.040Z,1.68
2023-03-05T17:14:20.813Z,1.76
2023-03-05T17:16:47.608Z,1.60
2023-03-05T17:19:14.630Z,1.59
2023-03-05T17:21:42.477Z,1.76
2023-03-05T17:24:09.945Z,1.55
2023-03-05T17:26:36.944Z,1.59
2023-03-05T17:29:04.950Z,1.68
2023-03-05T17:31:31.825Z,1.55
2023-03-05T17:33:58.426Z,1.65
2023-03-05T17:36:25.666Z,1.64
2023-03-05T17:38:53.956Z,1.56
2023-03-05T17:41:21.004Z,1.51
2023-03-05T17:43:47.851Z,1.13
2023-03-05T17:46:14.859Z,1.60
2023-03-05T17:48:41.697Z,1.53
2023-03-05T17:51:11.421Z,1.28
2023-03-05T17:53:39.379Z,1.46
2023-03-05T17:56:08.267Z,1.51
2023-03-05T17:58:34.959Z,1.58
2023-03-05T18:01:01.544Z,1.40
2023-03-05T18:03:28.003Z,1.46
2023-03-05T18:05:54.413Z,1.56
2023-03-05T18:08:21.039Z,1.55
2023-03-05T18:10:47.642Z,1.43
2023-03-05T18:13:14.281Z,1.27
2023-03-05T18:15:47.321Z,1.52
2023-03-05T18:18:18.155Z,1.51
2023-03-05T18:20:45.815Z,1.56
2023-03-05T18:23:12.640Z,1.48
2023-03-05T18:25:39.264Z,1.46
2023-03-05T18:28:08.376Z,1.53
2023-03-05T18:30:35.480Z,1.41
2023-03-05T18:33:02.202Z,1.52
2023-03-05T18:35:29.310Z,1.41
2023-03-05T18:37:56.759Z,1.53
2023-03-05T18:40:25.896Z,1.45
2023-03-05T18:42:52.621Z,1.44
2023-03-05T18:45:20.546Z,1.47
2023-03-05T18:47:47.942Z,1.45
2023-03-05T18:50:18.495Z,1.18
2023-03-05T18:52:45.792Z,1.45
2023-03-05T18:55:16.040Z,1.13
2023-03-05T18:57:42.529Z,1.31
2023-03-05T19:00:13.038Z,1.43
2023-03-05T19:02:39.519Z,1.39
2023-03-05T19:05:06.292Z,1.39
2023-03-05T19:07:34.918Z,1.08
2023-03-05T19:10:07.454Z,1.17
2023-03-05T19:12:38.293Z,1.35
2023-03-05T19:15:05.823Z,1.35
2023-03-05T19:17:32.766Z,1.02
2023-03-05T19:19:59.712Z,1.19
2023-03-05T19:22:28.431Z,1.34
2023-03-05T19:24:55.059Z,1.29
2023-03-05T19:27:21.528Z,1.29
2023-03-05T19:29:47.985Z,1.35
2023-03-05T19:32:17.672Z,1.36
2023-03-05T19:34:47.636Z,1.32
2023-03-05T19:37:14.870Z,1.16
2023-03-05T19:39:42.267Z,1.34
2023-03-05T19:42:08.839Z,1.28
2023-03-05T19:44:35.341Z,1.26
2023-03-05T19:47:01.916Z,1.17
2023-03-05T19:49:28.719Z,1.32
2023-03-05T19:51:55.607Z,1.32
2023-03-05T19:54:22.929Z,1.24
2023-03-05T19:56:50.838Z,1.14
2023-03-05T19:59:21.050Z,1.16
2023-03-05T20:01:48.731Z,1.28
2023-03-05T20:04:18.589Z,1.25
2023-03-05T20:06:45.436Z,1.21
2023-03-05T20:09:12.119Z,1.20
2023-03-05T20:11:39.535Z,1.22
2023-03-05T20:14:06.802Z,0.48
2023-03-05T20:16:35.182Z,1.23
2023-03-05T20:19:04.577Z,1.19
2023-03-05T20:21:34.406Z,1.07
2023-03-05T20:24:09.489Z,1.22
2023-03-05T20:26:38.665Z,1.20
2023-03-05T20:29:06.235Z,1.22
2023-03-05T20:31:36.716Z,1.15
2023-03-05T20:34:09.030Z,1.02
2023-03-05T20:36:35.853Z,0.98
2023-03-05T20:39:04.535Z,1.14
2023-03-05T20:41:31.559Z,1.14
2023-03-05T20:43:58.112Z,1.21
2023-03-05T20:46:27.407Z,1.18
2023-03-05T20:48:57.608Z,1.15
2023-03-05T20:51:45.994Z,1.17
2023-03-05T20:54:13.334Z,1.13
2023-03-05T20:56:39.913Z,1.01
2023-03-05T20:59:08.714Z,1.14
2023-03-05T21:01:37.511Z,1.15
2023-03-05T21:04:04.626Z,1.03
2023-03-05T21:06:32.895Z,1.14
2023-03-05T21:09:00.121Z,1.03
2023-03-05T21:11:27.959Z,1.06
2023-03-05T21:13:54.458Z,0.99
2023-03-05T21:16:24.668Z,1.11
2023-03-05T21:18:52.318Z,1.08
2023-03-05T21:21:19.555Z,1.08
2023-03-05T21:23:46.977Z,1.03
2023-03-05T21:26:13.756Z,0.94
2023-03-05T21:28:41.005Z,1.05
2023-03-05T21:31:10.256Z,1.06
2023-03-05T21:33:37.231Z,1.06
2023-03-05T21:36:04.554Z,1.04
2023-03-05T21:38:33.889Z,0.85
2023-03-05T21:41:01.765Z,0.99
2023-03-05T21:43:28.851Z,0.94
2023-03-05T21:45:57.196Z,0.91
2023-03-05T21:48:24.948Z,0.97
2023-03-05T21:50:51.545Z,0.94
2023-03-05T21:53:19.104Z,0.79
2023-03-05T21:56:05.132Z,1.13
2023-03-05T21:58:33.590Z,1.01
2023-03-05T22:01:00.836Z,0.92
2023-03-05T22:03:28.498Z,0.97
2023-03-05T22:05:55.483Z,0.93
2023-03-05T22:08:22.641Z,0.97
2023-03-05T22:10:50.295Z,0.96
2023-03-05T22:13:17.861Z,0.90
2023-03-05T22:15:48.308Z,0.95
2023-03-05T22:18:17.714Z,0.90
2023-03-05T22:20:44.925Z,0.99
2023-03-05T22:23:12.543Z,0.92
2023-03-05T22:25:39.612Z,0.88
2023-03-05T22:28:06.937Z,0.70
2023-03-05T22:30:33.541Z,0.74
2023-03-05T22:33:01.971Z,0.75
2023-03-05T22:35:29.324Z,0.79
2023-03-05T22:37:55.831Z,0.71
2023-03-05T22:40:24.000Z,0.78
2023-03-05T22:42:50.732Z,0.67
2023-03-05T22:45:18.031Z,0.74
2023-03-05T22:47:49.334Z,0.57
2023-03-05T22:50:19.441Z,0.72
2023-03-05T22:52:46.386Z,0.71
2023-03-05T22:55:15.345Z,0.69
2023-03-05T22:57:42.711Z,0.69
2023-03-05T23:00:14.370Z,0.59
2023-03-05T23:18:10.417Z,0.06
2023-03-05T23:20:38.446Z,0.22
2023-03-05T23:23:04.995Z,0.32
2023-03-05T23:25:33.905Z,0.35
2023-03-05T23:28:01.749Z,0.38
2023-03-05T23:30:29.937Z,0.39
2023-03-05T23:32:59.983Z,0.38
2023-03-05T23:35:30.019Z,0.40
2023-03-05T23:37:58.972Z,0.41
2023-03-05T23:40:28.272Z,0.38
2023-03-05T23:42:55.051Z,0.37
2023-03-05T23:45:22.732Z,0.44
2023-03-05T23:47:51.143Z,0.32
2023-03-05T23:50:21.193Z,0.39
2023-03-05T23:52:48.560Z,0.33
2023-03-05T23:55:18.321Z,0.36
2023-03-05T23:57:47.217Z,0.38
